Flight Track Log - Related Links

Times and Time Zones

All times are in EDT time to prevent confusion due to time zone crossing. See the AAL1012 flight status page for this flight to view local times or setup timezone preferences in your user account.

Time Position Orientation Groundspeed Altitude Reporting Facility
EDT Latitude Longitude Course Direction KTS MPH feet Rate Location/Type
Sat 03:14:22 PM 25.8020 -80.2680 90° East 183 211 200  Level FlightAware ADS-B
Sat 03:14:47 PM 25.8050 -80.2450 82° East 180 207 1,400 2,073 Climbing FlightAware ADS-B
Sat 03:15:17 PM 25.8090 -80.2160 81° East 200 230 2,100 1,309 Climbing FlightAware ADS-B
Sat 03:15:42 PM 25.8120 -80.1880 83° East 229 264 2,600 1,320 Climbing FlightAware ADS-B
Sat 03:16:07 PM 25.8170 -80.1570 80° East 254 292 3,200 1,733 Climbing FlightAware ADS-B
Sat 03:16:27 PM 25.8340 -80.1390 44° Northeast 260 299 3,900 2,200 Climbing FlightAware ADS-B
Sat 03:16:37 PM 25.8460 -80.1350 17° North 259 298 4,300 2,100 Climbing FlightAware ADS-B
Sat 03:17:07 PM 25.8820 -80.1380 356° North 272 313 5,300 2,000 Climbing FlightAware ADS-B
Sat 03:17:22 PM 25.9030 -80.1430 348° North 281 323 5,800 2,267 Climbing FlightAware ADS-B
Sat 03:17:52 PM 25.9410 -80.1550 344° North 281 323 7,000 2,618 Climbing FlightAware ADS-B
Sat 03:18:17 PM 25.9680 -80.1730 329° Northwest 279 321 8,200 2,509 Climbing FlightAware ADS-B
Sat 03:18:47 PM 25.9980 -80.2000 321° Northwest 284 327 9,300 2,057 Climbing FlightAware ADS-B
Sat 03:19:27 PM 26.0380 -80.2420 317° Northwest 308 354 10,600 1,986 Climbing FlightAware ADS-B
Sat 03:21:12 PM 26.1550 -80.3460 321° Northwest 343 395 14,100 2,129 Climbing FlightAware ADS-B
Sat 03:22:02 PM 26.2430 -80.3540 355° North 371 427 16,100 2,267 Climbing FlightAware ADS-B
Sat 03:22:42 PM 26.3130 -80.3600 356° North 386 444 17,500 2,320 Climbing FlightAware ADS-B
Sat 03:23:17 PM 26.3770 -80.3640 357° North 389 448 19,000 2,550 Climbing FlightAware ADS-B
Sat 03:24:02 PM 26.4550 -80.3740 353° North 391 450 20,900 2,486 Climbing FlightAware ADS-B
Sat 03:24:27 PM 26.5040 -80.3720 North 388 447 21,900 1,840 Climbing FlightAware ADS-B
Sat 03:25:17 PM 26.5930 -80.3670 North 416 479 23,200 1,050 Climbing FlightAware ADS-B
Sat 03:26:27 PM 26.7340 -80.3430 North 427 491 24,000 528 Climbing FlightAware ADS-B
Sat 03:27:22 PM 26.8410 -80.3220 10° North 438 504 24,300 1,389 Climbing FlightAware ADS-B
Sat 03:28:02 PM 26.9240 -80.3040 11° North 440 506 26,200 2,682 Climbing FlightAware ADS-B
Sat 03:28:47 PM 27.0080 -80.2870 10° North 417 480 28,100 2,700 Climbing FlightAware ADS-B
Sat 03:29:02 PM 27.0380 -80.2870 360° North 405 466 28,900 1,440 Climbing FlightAware ADS-B
Sat 03:30:02 PM 27.1550 -80.2840 North 421 484 29,900 1,129 Climbing FlightAware ADS-B
Sat 03:30:27 PM 27.2050 -80.2970 347° North 405 466 30,500 1,292 Climbing FlightAware ADS-B
Sat 03:31:07 PM 27.2680 -80.3320 334° Northwest 398 458 31,300 1,040 Climbing FlightAware ADS-B
Sat 03:31:42 PM 27.3270 -80.3640 334° Northwest 407 468 31,800 1,059 Climbing FlightAware ADS-B
Sat 03:32:32 PM 27.4180 -80.4120 335° Northwest 413 475 32,800 800 Climbing FlightAware ADS-B
Sat 03:33:12 PM 27.4890 -80.4500 335° Northwest 414 476 33,000 141 Climbing FlightAware ADS-B
Sat 03:33:57 PM 27.5580 -80.4880 334° Northwest 408 470 33,000  Level FlightAware ADS-B
Sat 03:34:37 PM 27.6060 -80.5470 313° West 379 436 33,000  Level FlightAware ADS-B
Sat 03:35:22 PM 27.6600 -80.6260 308° West 381 438 33,000 635 Level FlightAware ADS-B
Sat 03:36:02 PM 27.7030 -80.6890 308° West 379 436 33,900 750 Climbing FlightAware ADS-B
Sat 03:36:42 PM 27.7460 -80.7530 307° West 379 436 34,000 141 Climbing FlightAware ADS-B
Sat 03:37:27 PM 27.7980 -80.8250 309° West 413 475 34,100 424 Climbing FlightAware ADS-B
Sat 03:38:07 PM 27.8680 -80.8600 336° Northwest 449 517 34,600 635 Climbing FlightAware ADS-B
Sat 03:38:52 PM 27.9620 -80.8880 345° North 447 514 35,000 706 Climbing FlightAware ADS-B
Sat 03:39:32 PM 28.0400 -80.9120 345° North 435 501 35,600 1,029 Climbing FlightAware ADS-B
Sat 03:40:02 PM 28.0990 -80.9300 345° North 431 496 36,200 900 Climbing FlightAware ADS-B
Sat 03:40:52 PM 28.1940 -80.9580 345° North 442 509 36,800 533 Climbing FlightAware ADS-B
Sat 03:41:32 PM 28.2750 -80.9910 340° North 410 472 37,000 141 Climbing FlightAware ADS-B
Sat 03:42:17 PM 28.3420 -81.0410 327° Northwest 406 467 37,000  Level FlightAware ADS-B
Sat 03:43:02 PM 28.4160 -81.0980 326° Northwest 403 464 37,000  Level FlightAware ADS-B
Sat 03:44:57 PM 28.6200 -81.1850 339° North 437 503 37,000  Level FlightAware ADS-B
Sat 03:46:27 PM 28.7890 -81.2180 350° North 442 509 37,000  Level FlightAware ADS-B
Sat 03:49:22 PM 29.1460 -81.2840 351° North 438 504 37,000  Level FlightAware ADS-B
Sat 03:50:17 PM 29.2570 -81.3050 351° North 436 502 37,000  Level FlightAware ADS-B
Sat 03:51:12 PM 29.3680 -81.3260 351° North 441 507 37,000  Level FlightAware ADS-B
Sat 03:52:02 PM 29.4760 -81.3460 351° North 441 507 37,000  Level FlightAware ADS-B
Sat 03:53:17 PM 29.6300 -81.3750 351° North 453 521 37,000  Level FlightAware ADS-B
Sat 03:53:57 PM 29.7000 -81.3900 349° North 453 521 37,000  Level FlightAware ADS-B
Sat 03:54:37 PM 29.7700 -81.4040 350° North 453 521 37,000  Level FlightAware ADS-B
Sat 03:55:17 PM 29.8410 -81.4180 350° North 453 521 37,000  Level FlightAware ADS-B
Sat 03:56:07 PM 29.9280 -81.4360 350° North 453 521 37,000  Level FlightAware ADS-B
Sat 03:56:47 PM 29.9980 -81.4500 350° North 453 521 37,000  Level FlightAware ADS-B
Sat 03:57:27 PM 30.0690 -81.4650 350° North 453 521 37,000  Level FlightAware ADS-B
Sat 03:58:07 PM 30.1390 -81.4790 350° North 453 521 37,000  Level FlightAware ADS-B
Sat 03:58:47 PM 30.2090 -81.4930 350° North 453 521 37,000  Level FlightAware ADS-B
Sat 03:59:27 PM 30.2790 -81.5080 350° North 453 521 37,000  Level FlightAware ADS-B
Sat 04:00:17 PM 30.3670 -81.5260 350° North 453 521 37,000  Level FlightAware ADS-B
Sat 04:00:57 PM 30.4370 -81.5400 350° North 453 521 37,000  Level FlightAware ADS-B
Sat 04:01:37 PM 30.5070 -81.5540 350° North 453 521 37,000  Level FlightAware ADS-B
Sat 04:02:17 PM 30.5770 -81.5690 350° North 453 521 37,000 329 Level FlightAware ADS-B
Sat 04:07:42 PM 31.5090 -80.6470 40° Northeast 527 606 39,000 333 Climbing FlightAware ADS-B
Sat 04:08:17 PM 31.5660 -80.6090 30° Northeast 526 605 39,000  Level FlightAware ADS-B
Sat 04:09:02 PM 31.6670 -80.5400 30° Northeast 526 605 39,000  Level FlightAware ADS-B
Sat 04:09:42 PM 31.7380 -80.4910 30° Northeast 526 605 39,000  Level FlightAware ADS-B
Sat 04:10:32 PM 31.8280 -80.4300 30° Northeast 526 605 39,000  Level FlightAware ADS-B
Sat 04:11:12 PM 31.9000 -80.3820 30° Northeast 526 605 39,000  Level FlightAware ADS-B
Sat 04:11:52 PM 31.9710 -80.3330 30° Northeast 526 605 39,000  Level FlightAware ADS-B
Sat 04:12:32 PM 32.0430 -80.2840 30° Northeast 526 605 39,000  Level FlightAware ADS-B
Sat 04:13:22 PM 32.1320 -80.2230 30° Northeast 526 605 39,000  Level FlightAware ADS-B
Sat 04:14:02 PM 32.2040 -80.1740 30° Northeast 526 605 39,000  Level FlightAware ADS-B
Sat 04:14:42 PM 32.2760 -80.1250 30° Northeast 526 605 39,000  Level FlightAware ADS-B
Sat 04:15:17 PM 32.4680 -79.9790 33° Northeast 530 610 39,000  Level FlightAware ADS-B
Sat 04:16:07 PM 32.5800 -79.9000 31° Northeast 531 611 39,000  Level FlightAware ADS-B
Sat 04:16:52 PM 32.6760 -79.8320 31° Northeast 531 611 39,000  Level FlightAware ADS-B
Sat 04:17:32 PM 32.7590 -79.7730 31° Northeast 532 612 39,000  Level FlightAware ADS-B
Sat 04:18:17 PM 32.8550 -79.7050 31° Northeast 533 613 39,000  Level FlightAware ADS-B
Sat 04:18:57 PM 32.9380 -79.6450 31° Northeast 533 613 39,000  Level FlightAware ADS-B
Sat 04:19:37 PM 33.0190 -79.5870 31° Northeast 533 613 39,000  Level FlightAware ADS-B
Sat 04:20:22 PM 33.1190 -79.5160 31° Northeast 535 616 39,000  Level FlightAware ADS-B
Sat 04:21:02 PM 33.2000 -79.4580 31° Northeast 537 618 39,000  Level FlightAware ADS-B
Sat 04:21:47 PM 33.2980 -79.3870 31° Northeast 537 618 39,000  Level FlightAware ADS-B
Sat 04:22:27 PM 33.3820 -79.3260 31° Northeast 537 618 39,000  Level FlightAware ADS-B
Sat 04:23:07 PM 33.4660 -79.2660 31° Northeast 537 618 39,000  Level FlightAware ADS-B
Sat 04:23:52 PM 33.5600 -79.1980 31° Northeast 540 621 39,000  Level FlightAware ADS-B
Sat 04:24:32 PM 33.6480 -79.1340 31° Northeast 539 620 39,000  Level FlightAware ADS-B
Sat 04:25:17 PM 33.7430 -79.0650 31° Northeast 540 621 39,000 -635 Level FlightAware ADS-B
Sat 04:25:57 PM 33.8320 -79.0000 31° Northeast 538 619 38,100 -1,360 Descending FlightAware ADS-B
Sat 04:26:32 PM 33.9030 -78.9480 31° Northeast 541 623 37,300 -825 Descending FlightAware ADS-B
Sat 04:27:17 PM 33.9950 -78.8800 31° Northeast 543 625 37,000 -200 Descending FlightAware ADS-B
Sat 04:28:02 PM 34.0790 -78.8170 32° Northeast 541 623 37,000  Level FlightAware ADS-B
Sat 04:28:42 PM 34.1510 -78.7630 32° Northeast 541 623 37,000  Level FlightAware ADS-B
Sat 04:29:22 PM 34.2230 -78.7080 32° Northeast 541 623 37,000  Level FlightAware ADS-B
Sat 04:30:02 PM 34.2960 -78.6530 32° Northeast 541 623 37,000  Level FlightAware ADS-B
Sat 04:30:52 PM 34.3860 -78.5850 32° Northeast 541 623 37,000  Level FlightAware ADS-B
Sat 04:31:32 PM 34.4580 -78.5310 32° Northeast 541 623 37,000  Level FlightAware ADS-B
Sat 04:32:12 PM 34.5300 -78.4760 32° Northeast 541 623 37,000  Level FlightAware ADS-B
Sat 04:32:52 PM 34.6020 -78.4210 32° Northeast 541 623 37,000  Level FlightAware ADS-B
Sat 04:33:32 PM 34.6740 -78.3660 32° Northeast 541 623 37,000  Level FlightAware ADS-B
Sat 04:34:22 PM 34.7650 -78.2980 32° Northeast 541 623 37,000  Level FlightAware ADS-B
Sat 04:35:02 PM 34.8370 -78.2430 32° Northeast 541 623 37,000  Level FlightAware ADS-B
Sat 04:35:42 PM 34.9090 -78.1880 32° Northeast 541 623 37,000  Level FlightAware ADS-B
Sat 04:36:22 PM 34.9810 -78.1330 32° Northeast 541 623 37,000  Level FlightAware ADS-B
Sat 04:37:02 PM 35.0530 -78.0780 32° Northeast 541 623 37,000 -1,235 Level FlightAware ADS-B
Sat 04:38:04 PM 35.1578 -77.5178 32° Northeast 538 619 34,900 -1,770 Descending Washington Center
Sat 04:39:04 PM 35.2539 -77.3775 50° Northeast 538 619 33,400 -1,000 Descending Washington Center
Sat 04:40:04 PM 35.3494 -77.2575 46° Northeast 543 625 32,900 -1,000 Descending Washington Center
Sat 04:41:04 PM 35.4822 -77.1683 29° Northeast 530 610 31,400 -950 Descending Washington Center
Sat 04:42:04 PM 35.6169 -77.0817 28° Northeast 536 617 31,000 -200 Descending Washington Center
Sat 04:43:04 PM 35.7472 -76.9919 29° Northeast 536 617 31,000  Level Washington Center
Sat 04:44:04 PM 35.8839 -76.9072 27° Northeast 541 623 31,000 -50 Level Washington Center
Sat 04:45:04 PM 36.0225 -76.8194 27° Northeast 541 623 30,900 -50 Descending Washington Center
Sat 04:46:04 PM 36.1589 -76.7292 28° Northeast 541 623 30,900 50 Level Washington Center
Sat 04:47:04 PM 36.2956 -76.6383 28° Northeast 541 623 31,000 -500 Climbing Washington Center
Sat 04:48:04 PM 36.4464 -76.5422 27° Northeast 541 623 29,900 -603 Descending Washington Center
Sat 04:53:42 PM 37.1880 -76.0530 27° Northeast 530 610 27,000 -460 Descending FlightAware ADS-B
Sat 04:54:22 PM 37.2910 -75.9830 28° Northeast 530 610 27,000  Level FlightAware ADS-B
Sat 04:55:07 PM 37.3940 -75.9140 28° Northeast 527 606 27,000  Level FlightAware ADS-B
Sat 04:55:47 PM 37.4750 -75.8590 28° Northeast 528 608 27,000  Level FlightAware ADS-B
Sat 04:56:13 PM 37.5478 -75.8104 28° Northeast 537 618 27,000  Level FlightAware ADS-B
Sat 04:56:46 PM 37.6198 -75.7617 28° Northeast 537 618 27,000  Level FlightAware ADS-B
Sat 04:57:17 PM 37.6865 -75.7164 28° Northeast 538 619 27,000  Level FlightAware ADS-B
Sat 04:57:48 PM 37.7543 -75.6704 28° Northeast 539 620 27,000  Level FlightAware ADS-B
Sat 04:58:21 PM 37.8276 -75.6204 28° Northeast 540 621 27,000  Level FlightAware ADS-B
Sat 04:58:52 PM 37.8951 -75.5744 28° Northeast 540 621 27,000  Level FlightAware ADS-B
Sat 04:59:59 PM 38.0435 -75.4727 28° Northeast 540 621 27,000 -433 Level FlightAware ADS-B
Sat 05:00:29 PM 38.1104 -75.4297 27° Northeast 536 617 26,300 -1,574 Descending FlightAware ADS-B
Sat 05:01:00 PM 38.1769 -75.3879 26° Northeast 523 602 25,400 -2,323 Descending FlightAware ADS-B
Sat 05:01:31 PM 38.2453 -75.3457 26° Northeast 519 597 23,900 -2,710 Descending FlightAware ADS-B
Sat 05:02:02 PM 38.3101 -75.3054 26° Northeast 506 582 22,600 -2,687 Descending FlightAware ADS-B
Sat 05:02:38 PM 38.3846 -75.2583 26° Northeast 492 566 20,900 -2,955 Descending FlightAware ADS-B
Sat 05:03:09 PM 38.4453 -75.2191 27° Northeast 471 542 19,300 -3,280 Descending FlightAware ADS-B
Sat 05:03:53 PM 38.5273 -75.1660 27° Northeast 465 535 16,800 -3,000 Descending FlightAware ADS-B
Sat 05:04:37 PM 38.6091 -75.1128 27° Northeast 465 535 14,900 -1,277 Descending FlightAware ADS-B
Sat 05:05:27 PM 38.6930 -75.0580 27° Northeast 430 495 14,800  Descending FlightAware ADS-B
Sat 05:05:38 PM 38.7181 -75.0424 26° Northeast 433 498 14,900 146 Climbing FlightAware ADS-B
Sat 05:06:08 PM 38.7716 -75.0087 26° Northeast 430 495 14,900  Level FlightAware ADS-B
Sat 05:06:40 PM 38.8282 -74.9728 26° Northeast 432 497 14,900 -95 Level FlightAware ADS-B
Sat 05:07:11 PM 38.8846 -74.9368 26° Northeast 430 495 14,800 -375 Descending FlightAware ADS-B
Sat 05:07:28 PM 38.9128 -74.9179 28° Northeast 425 489 14,600 -960 Descending FlightAware ADS-B
Sat 05:07:36 PM 38.9258 -74.9068 34° Northeast 421 484 14,400 -1,200 Descending FlightAware ADS-B
Sat 05:07:43 PM 38.9364 -74.8959 39° Northeast 418 481 14,300 -1,200 Descending FlightAware ADS-B
Sat 05:07:46 PM 38.9415 -74.8899 42° Northeast 418 481 14,200 -1,059 Descending FlightAware ADS-B
Sat 05:08:17 PM 38.9822 -74.8353 46° Northeast 396 456 13,700 -774 Descending FlightAware ADS-B
Sat 05:08:48 PM 39.0191 -74.7857 46° Northeast 370 426 13,400 -885 Descending FlightAware ADS-B
Sat 05:09:18 PM 39.0531 -74.7393 47° Northeast 349 402 12,800 -1,377 Descending FlightAware ADS-B
Sat 05:09:49 PM 39.0873 -74.6930 46° Northeast 341 392 12,000 -1,672 Descending FlightAware ADS-B
Sat 05:10:19 PM 39.1197 -74.6499 46° Northeast 335 386 11,100 -1,846 Descending FlightAware ADS-B
Sat 05:10:28 PM 39.1299 -74.6385 41° Northeast 333 383 10,800 -1,826 Descending FlightAware ADS-B
Sat 05:10:42 PM 39.1474 -74.6251 31° Northeast 326 375 10,400 -1,463 Descending FlightAware ADS-B
Sat 05:11:09 PM 39.1866 -74.6142 12° North 318 366 9,800 -837 Descending FlightAware ADS-B
Sat 05:11:25 PM 39.2094 -74.6119 North 307 353 9,800 158 Level FlightAware ADS-B
Sat 05:11:47 PM 39.2401 -74.6086 North 304 350 9,900 158 Climbing FlightAware ADS-B
Sat 05:12:03 PM 39.2616 -74.6062 North 303 349 9,900  Level FlightAware ADS-B
Sat 05:12:18 PM 39.2830 -74.6039 North 304 350 9,900 -200 Level FlightAware ADS-B
Sat 05:12:33 PM 39.3043 -74.6016 North 304 350 9,800  Descending FlightAware ADS-B
Sat 05:12:50 PM 39.3275 -74.5990 North 305 351 9,900 188 Climbing FlightAware ADS-B
Sat 05:13:05 PM 39.3497 -74.5964 North 307 353 9,900  Level FlightAware ADS-B
Sat 05:13:28 PM 39.3814 -74.5925 North 307 353 9,900  Level FlightAware ADS-B
Sat 05:13:47 PM 39.4090 -74.5893 North 307 353 9,900  Level FlightAware ADS-B
Sat 05:14:06 PM 39.4352 -74.5862 North 307 353 9,900 -182 Level FlightAware ADS-B
Sat 05:14:20 PM 39.4553 -74.5840 North 306 352 9,800  Descending FlightAware ADS-B
Sat 05:14:25 PM 39.4632 -74.5836 North 304 350 9,900 667 Climbing FlightAware ADS-B
Sat 05:14:29 PM 39.4675 -74.5837 359° North 302 348 9,900  Level FlightAware ADS-B
Sat 05:14:33 PM 39.4738 -74.5845 354° North 299 344 9,900  Level FlightAware ADS-B
Sat 05:14:38 PM 39.4800 -74.5861 349° North 296 341 9,900  Level FlightAware ADS-B
Sat 05:14:41 PM 39.4845 -74.5881 341° North 286 329 9,900  Level FlightAware ADS-B
Sat 05:14:46 PM 39.4894 -74.5912 334° Northwest 280 322 9,900  Level FlightAware ADS-B
Sat 05:14:49 PM 39.4928 -74.5944 324° Northwest 276 318 9,900  Level FlightAware ADS-B
Sat 05:14:53 PM 39.4963 -74.5981 321° Northwest 272 313 9,900  Level FlightAware ADS-B
Sat 05:14:56 PM 39.4990 -74.6015 316° Northwest 270 311 9,900 -667 Level FlightAware ADS-B
Sat 05:15:02 PM 39.5036 -74.6092 308° West 264 304 9,800  Descending FlightAware ADS-B
Sat 05:15:08 PM 39.5072 -74.6172 300° West 258 297 9,900 500 Climbing FlightAware ADS-B
Sat 05:15:14 PM 39.5098 -74.6255 292° West 255 293 9,900  Level FlightAware ADS-B
Sat 05:15:17 PM 39.5110 -74.6307 287° West 254 292 9,900  Level FlightAware ADS-B
Sat 05:15:23 PM 39.5123 -74.6393 281° West 250 288 9,900  Level FlightAware ADS-B
Sat 05:15:26 PM 39.5127 -74.6444 276° West 249 287 9,900 -316 Level FlightAware ADS-B
Sat 05:15:42 PM 39.5142 -74.6668 275° West 248 285 9,800  Descending FlightAware ADS-B
Sat 05:15:57 PM 39.5159 -74.6901 275° West 246 283 9,900 -188 Climbing FlightAware ADS-B
Sat 05:16:14 PM 39.5180 -74.7142 276° West 247 284 9,700 -1,091 Descending FlightAware ADS-B
Sat 05:16:19 PM 39.5185 -74.7222 275° West 245 282 9,500 -2,100 Descending FlightAware ADS-B
Sat 05:16:34 PM 39.5202 -74.7443 276° West 250 288 9,000 -1,355 Descending FlightAware ADS-B
Sat 05:16:50 PM 39.5222 -74.7674 276° West 251 289 8,800 -387 Descending FlightAware ADS-B
Sat 05:17:05 PM 39.5241 -74.7900 276° West 247 284 8,800  Level FlightAware ADS-B
Sat 05:17:20 PM 39.5258 -74.8122 276° West 243 280 8,800 194 Level FlightAware ADS-B
Sat 05:17:36 PM 39.5277 -74.8353 276° West 243 280 8,900  Climbing FlightAware ADS-B
Sat 05:17:50 PM 39.5293 -74.8545 276° West 244 281 8,800  Descending FlightAware ADS-B
Sat 05:18:06 PM 39.5309 -74.8784 275° West 241 277 8,900  Climbing FlightAware ADS-B
Sat 05:18:21 PM 39.5326 -74.9001 276° West 243 280 8,800 -207 Descending FlightAware ADS-B
Sat 05:18:35 PM 39.5341 -74.9199 276° West 244 281 8,800  Level FlightAware ADS-B
Sat 05:18:45 PM 39.5352 -74.9352 275° West 243 280 8,800  Level FlightAware ADS-B
Sat 05:18:51 PM 39.5363 -74.9431 280° West 242 278 8,800  Level FlightAware ADS-B
Sat 05:18:55 PM 39.5375 -74.9487 286° West 242 278 8,800  Level FlightAware ADS-B
Sat 05:19:01 PM 39.5396 -74.9561 290° West 242 278 8,800  Level FlightAware ADS-B
Sat 05:19:05 PM 39.5418 -74.9617 297° West 242 278 8,800 750 Level FlightAware ADS-B
Sat 05:19:09 PM 39.5443 -74.9672 301° West 243 280 8,900 545 Climbing FlightAware ADS-B
Sat 05:19:16 PM 39.5491 -74.9752 308° West 244 281 8,900 -400 Level FlightAware ADS-B
Sat 05:19:24 PM 39.5553 -74.9832 315° West 248 285 8,800 -194 Descending FlightAware ADS-B
Sat 05:19:47 PM 39.5792 -74.9993 333° Northwest 258 297 8,800  Level FlightAware ADS-B
Sat 05:19:51 PM 39.5848 -75.0009 348° North 260 299 8,800  Level FlightAware ADS-B
Sat 05:19:57 PM 39.5910 -75.0020 352° North 263 303 8,800 667 Level FlightAware ADS-B
Sat 05:20:00 PM 39.5955 -75.0023 357° North 265 305 8,900 857 Climbing FlightAware ADS-B
Sat 05:20:04 PM 39.5999 -75.0023 360° North 268 308 8,900 -667 Level FlightAware ADS-B
Sat 05:20:09 PM 39.6059 -75.0016 North 272 313 8,800 -750 Descending FlightAware ADS-B
Sat 05:20:12 PM 39.6100 -75.0008 North 275 316 8,800  Level FlightAware ADS-B
Sat 05:20:16 PM 39.6156 -74.9992 12° North 277 319 8,800  Level FlightAware ADS-B
Sat 05:20:32 PM 39.6356 -74.9922 15° North 280 322 8,800  Level FlightAware ADS-B
Sat 05:20:48 PM 39.6552 -74.9852 15° North 279 321 8,800 -545 Level FlightAware ADS-B
Sat 05:21:05 PM 39.6764 -74.9776 15° North 278 320 8,500 -938 Descending FlightAware ADS-B
Sat 05:21:20 PM 39.6947 -74.9708 16° North 271 312 8,300 -1,000 Descending FlightAware ADS-B
Sat 05:21:35 PM 39.7126 -74.9643 16° North 266 306 8,000 -1,154 Descending FlightAware ADS-B
Sat 05:21:46 PM 39.7256 -74.9597 15° North 265 305 7,800 -1,286 Descending FlightAware ADS-B
Sat 05:21:49 PM 39.7295 -74.9586 12° North 264 304 7,700 -1,714 Descending FlightAware ADS-B
Sat 05:21:53 PM 39.7336 -74.9577 10° North 263 303 7,600 -1,800 Descending FlightAware ADS-B
Sat 05:21:59 PM 39.7409 -74.9570 North 259 298 7,400 -2,000 Descending FlightAware ADS-B
Sat 05:22:05 PM 39.7475 -74.9575 357° North 257 296 7,200 -1,636 Descending FlightAware ADS-B
Sat 05:22:10 PM 39.7533 -74.9588 350° North 252 290 7,100 -1,333 Descending FlightAware ADS-B
Sat 05:22:14 PM 39.7584 -74.9607 344° North 249 287 7,000 -2,000 Descending FlightAware ADS-B
Sat 05:22:19 PM 39.7639 -74.9634 339° North 247 284 6,800 -2,000 Descending FlightAware ADS-B
Sat 05:22:23 PM 39.7673 -74.9658 332° Northwest 245 282 6,700 -1,895 Descending FlightAware ADS-B
Sat 05:22:38 PM 39.7821 -74.9768 330° Northwest 243 280 6,200 -1,548 Descending FlightAware ADS-B
Sat 05:22:54 PM 39.7971 -74.9884 329° Northwest 234 269 5,900 -1,333 Descending FlightAware ADS-B
Sat 05:23:14 PM 39.8150 -75.0020 330° Northwest 229 264 5,400 -1,941 Descending FlightAware ADS-B
Sat 05:23:28 PM 39.8280 -75.0117 330° Northwest 220 253 4,800 -2,400 Descending FlightAware ADS-B
Sat 05:23:44 PM 39.8412 -75.0214 331° Northwest 217 250 4,200 -2,516 Descending FlightAware ADS-B
Sat 05:23:59 PM 39.8549 -75.0315 330° Northwest 217 250 3,500 -2,195 Descending FlightAware ADS-B
Sat 05:24:25 PM 39.8779 -75.0482 331° Northwest 223 257 2,700 -1,636 Descending FlightAware ADS-B
Sat 05:24:43 PM 39.8912 -75.0611 323° Northwest 197 227 2,300 -857 Descending FlightAware ADS-B
Sat 05:24:53 PM 39.8958 -75.0700 304° West 181 208 2,300 -353 Level FlightAware ADS-B
Sat 05:25:00 PM 39.8976 -75.0763 290° West 171 197 2,200 -1,200 Descending FlightAware ADS-B
Sat 05:25:03 PM 39.8984 -75.0797 287° West 168 193 2,100 -1,000 Descending FlightAware ADS-B
Sat 05:25:12 PM 39.9001 -75.0879 285° West 157 181 2,000 -706 Descending FlightAware ADS-B
Sat 05:25:20 PM 39.9002 -75.0950 271° West 157 181 1,900 -1,091 Descending FlightAware ADS-B
Sat 05:25:23 PM 39.8998 -75.0977 259° West 158 182 1,800 -1,500 Descending FlightAware ADS-B
Sat 05:25:32 PM 39.8980 -75.1059 254° West 154 177 1,600 -1,000 Descending FlightAware ADS-B
Sat 05:25:47 PM 39.8955 -75.1187 256° West 136 157 1,400 -632 Descending FlightAware ADS-B
Sat 05:25:51 PM 39.8948 -75.1221 255° West 133 153 1,400 -545 Level FlightAware ADS-B
Sat 05:25:58 PM 39.8939 -75.1276 258° West 132 152 1,300 -300 Descending FlightAware ADS-B
Sat 05:26:11 PM 39.8922 -75.1369 257° West 131 151 1,300 -500 Level FlightAware ADS-B
Sat 05:26:22 PM 39.8906 -75.1455 256° West 136 157 1,100 -889 Descending FlightAware ADS-B
Sat 05:26:38 PM 39.8882 -75.1583 256° West 137 158 900 -774 Descending FlightAware ADS-B
Sat 05:26:53 PM 39.8856 -75.1707 255° West 137 158 700 -720 Descending FlightAware ADS-B
Sat 05:27:03 PM 39.8840 -75.1786 255° West 139 160 600 -667 Descending FlightAware ADS-B
Sat 05:27:20 PM 39.8814 -75.1922 256° West 141 162 400 -667 Descending FlightAware ADS-B
Sat 05:27:39 PM 39.8783 -75.2072 255° West 131 151 200 -632 Descending FlightAware ADS-B

Login

Don't have an account? Register now (free) for customized features, flight alerts, and more!